Time;durP1;ratioP1;P1;durP2;ratioP2;P2;SDS_P1;SDS_P2;PMS_P1;PMS_P2;Temp;Humidity;BMP_temperature;BMP_pressure;BME280_temperature;BME280_humidity;BME280_pressure;Samples;Min_cycle;Max_cycle;Signal;HPM_P1;HPM_P2
2024/02/03 00:00:19;;;;;;;0.50;0.50;;;;;;;9.75;38.57;94684.84;4918188;29;20820;-83
2024/02/03 00:02:45;;;;;;;0.63;0.63;;;;;;;9.77;38.66;94690.56;4919383;29;20210;-84
2024/02/03 00:05:12;;;;;;;0.50;0.50;;;;;;;9.76;38.40;94683.84;4918633;29;20226;-83
2024/02/03 00:07:38;;;;;;;0.60;0.60;;;;;;;9.79;38.81;94686.81;4920191;29;20237;-83
2024/02/03 00:10:07;;;;;;;0.60;0.60;;;;;;;9.79;38.40;94668.84;4932469;29;20240;-84
2024/02/03 00:12:33;;;;;;;0.73;0.50;;;;;;;9.79;37.81;94658.56;4906933;29;20202;-84
2024/02/03 00:15:00;;;;;;;0.53;0.53;;;;;;;9.78;38.03;94638.19;4918936;29;20214;-84
2024/02/03 00:17:26;;;;;;;0.50;0.50;;;;;;;9.79;37.59;94640.56;4916993;29;20206;-83
2024/02/03 00:19:53;;;;;;;0.50;0.50;;;;;;;9.84;37.66;94643.31;4919183;29;20217;-83
2024/02/03 00:22:19;;;;;;;0.60;0.60;;;;;;;9.79;37.64;94622.56;4918835;29;20222;-84
2024/02/03 00:24:46;;;;;;;0.60;0.60;;;;;;;9.85;37.65;94626.13;4918835;29;20206;-84
2024/02/03 00:27:13;;;;;;;0.60;0.60;;;;;;;9.84;37.49;94607.31;4918703;29;20226;-84
2024/02/03 00:29:40;;;;;;;0.53;0.53;;;;;;;9.82;37.30;94596.44;4909714;29;20206;-84
2024/02/03 00:32:07;;;;;;;0.60;0.60;;;;;;;9.83;36.92;94592.88;4918177;29;20218;-83
2024/02/03 00:34:33;;;;;;;0.50;0.50;;;;;;;9.87;37.29;94604.38;4915269;29;20242;-84
2024/02/03 00:37:01;;;;;;;0.80;0.60;;;;;;;9.85;37.04;94584.97;4917730;29;20198;-84
2024/02/03 00:39:27;;;;;;;0.60;0.60;;;;;;;9.82;37.15;94578.44;4917086;29;20199;-84
2024/02/03 00:41:54;;;;;;;0.50;0.50;;;;;;;9.84;37.11;94591.91;4917815;29;20797;-84
2024/02/03 00:44:22;;;;;;;0.50;0.50;;;;;;;9.87;37.17;94609.50;4918468;29;20202;-84
2024/02/03 00:46:50;;;;;;;0.50;0.50;;;;;;;9.87;37.07;94594.09;4918156;29;20229;-84
2024/02/03 00:49:17;;;;;;;0.40;0.40;;;;;;;9.92;37.27;94591.72;4916729;29;20213;-84
2024/02/03 00:51:43;;;;;;;0.50;0.50;;;;;;;9.98;37.38;94600.44;4917920;29;20653;-84
2024/02/03 00:54:10;;;;;;;0.60;0.60;;;;;;;9.95;36.95;94585.41;4918559;29;20205;-84
2024/02/03 00:56:36;;;;;;;1.13;0.70;;;;;;;9.98;37.40;94592.72;4918623;29;20294;-84
2024/02/03 00:59:03;;;;;;;0.60;0.60;;;;;;;9.93;37.03;94601.03;4918991;29;20801;-85
2024/02/03 01:01:31;;;;;;;0.50;0.50;;;;;;;9.93;37.16;94605.38;4922962;29;20245;-83
2024/02/03 01:03:58;;;;;;;0.63;0.57;;;;;;;9.94;37.21;94607.75;4918838;29;20206;-83
2024/02/03 01:06:24;;;;;;;0.60;0.60;;;;;;;9.91;37.13;94608.13;4915868;29;20320;-84
2024/02/03 01:08:51;;;;;;;0.60;0.60;;;;;;;9.93;37.63;94631.09;4917723;29;20212;-84
2024/02/03 01:11:17;;;;;;;0.50;0.50;;;;;;;9.86;37.43;94614.84;4917120;29;20230;-82
2024/02/03 01:13:51;;;;;;;0.50;0.50;;;;;;;9.88;37.29;94623.94;4918001;29;20213;-83
2024/02/03 01:16:18;;;;;;;0.70;0.60;;;;;;;9.94;37.28;94624.94;4917984;29;20268;-83
2024/02/03 01:18:45;;;;;;;0.50;0.50;;;;;;;9.92;37.53;94620.00;4917793;29;20198;-83
2024/02/03 01:21:16;;;;;;;0.60;0.60;;;;;;;9.92;37.50;94625.16;4914777;29;20249;-83
2024/02/03 01:23:42;;;;;;;1.27;0.60;;;;;;;9.92;37.52;94638.00;4923961;29;20201;-83
2024/02/03 01:26:09;;;;;;;0.50;0.50;;;;;;;9.93;37.53;94639.59;4925372;29;20229;-83
2024/02/03 01:28:35;;;;;;;0.60;0.60;;;;;;;9.89;37.29;94617.81;4918666;29;20206;-84
2024/02/03 01:31:01;;;;;;;0.90;0.60;;;;;;;9.92;37.41;94625.16;4910339;29;20222;-82
2024/02/03 01:33:30;;;;;;;0.50;0.50;;;;;;;9.88;37.14;94598.25;4917918;29;20584;-84
2024/02/03 01:35:58;;;;;;;0.50;0.50;;;;;;;9.83;36.97;94590.31;4917772;29;20207;-85
2024/02/03 01:38:25;;;;;;;0.47;0.47;;;;;;;9.86;37.07;94595.06;4915837;29;20206;-83
2024/02/03 01:40:51;;;;;;;1.37;0.50;;;;;;;9.85;36.72;94580.63;4916868;29;20229;-83
2024/02/03 01:43:17;;;;;;;0.50;0.50;;;;;;;9.83;36.67;94562.03;4916688;29;20222;-83
2024/02/03 01:45:44;;;;;;;0.63;0.50;;;;;;;9.79;36.28;94542.88;4917288;29;20258;-83
2024/02/03 01:48:13;;;;;;;0.40;0.40;;;;;;;9.81;36.43;94529.84;4916937;29;20240;-83
2024/02/03 01:50:41;;;;;;;0.50;0.50;;;;;;;9.83;35.93;94520.91;4917241;29;20222;-84
2024/02/03 01:53:10;;;;;;;0.73;0.73;;;;;;;9.81;35.67;94489.50;4915837;29;20206;-83
2024/02/03 01:55:37;;;;;;;0.50;0.50;;;;;;;9.85;36.02;94488.09;4917633;29;20233;-84
2024/02/03 01:58:04;;;;;;;0.60;0.60;;;;;;;9.86;35.88;94494.03;4918513;29;20214;-83
2024/02/03 02:00:31;;;;;;;0.50;0.50;;;;;;;9.87;35.47;94483.53;4918511;29;20226;-82
2024/02/03 02:02:58;;;;;;;0.50;0.50;;;;;;;9.87;35.63;94496.41;4917107;29;20265;-85
2024/02/03 02:05:25;;;;;;;0.50;0.50;;;;;;;9.91;35.69;94497.59;4917913;29;20206;-85
2024/02/03 02:07:51;;;;;;;0.60;0.60;;;;;;;9.96;35.70;94489.28;4918150;29;20560;-84
2024/02/03 02:10:19;;;;;;;1.07;0.57;;;;;;;10.00;35.85;94503.31;4916191;29;20210;-86
2024/02/03 02:12:45;;;;;;;0.50;0.50;;;;;;;9.97;35.35;94462.59;4912403;29;20210;-84
2024/02/03 02:15:12;;;;;;;0.40;0.40;;;;;;;9.91;35.22;94448.75;4918204;29;20205;-84
2024/02/03 02:17:38;;;;;;;1.33;0.57;;;;;;;9.91;34.91;94423.03;4917008;29;20847;-84
2024/02/03 02:20:07;;;;;;;0.50;0.50;;;;;;;9.93;35.19;94436.47;4917599;29;20265;-83
2024/02/03 02:22:33;;;;;;;2.90;0.57;;;;;;;9.94;35.46;94440.63;4917196;29;20203;-85
2024/02/03 02:25:00;;;;;;;0.53;0.53;;;;;;;9.90;34.92;94416.31;4916721;29;20206;-85
2024/02/03 02:27:26;;;;;;;0.50;0.50;;;;;;;9.89;35.06;94413.94;4915485;29;20226;-83
2024/02/03 02:29:53;;;;;;;0.50;0.50;;;;;;;9.88;35.07;94420.84;4916783;29;20261;-83
2024/02/03 02:32:19;;;;;;;0.50;0.50;;;;;;;9.91;35.19;94432.53;4916356;29;20230;-85
2024/02/03 02:34:45;;;;;;;0.50;0.50;;;;;;;9.92;34.80;94408.41;4917205;29;20203;-85
2024/02/03 02:37:13;;;;;;;0.50;0.50;;;;;;;9.93;35.00;94404.84;4917122;29;20244;-85
2024/02/03 02:39:39;;;;;;;0.40;0.40;;;;;;;9.92;35.31;94408.41;4916130;29;20206;-84
2024/02/03 02:42:06;;;;;;;1.20;0.60;;;;;;;9.91;34.78;94389.59;4914093;29;20225;-84
2024/02/03 02:44:32;;;;;;;0.40;0.40;;;;;;;9.90;34.49;94382.88;4917533;29;20244;-84
2024/02/03 02:46:59;;;;;;;0.50;0.50;;;;;;;9.93;35.03;94391.97;4917246;29;20226;-83
2024/02/03 02:49:25;;;;;;;0.50;0.50;;;;;;;9.88;34.48;94387.44;4917303;29;20198;-83
2024/02/03 02:51:52;;;;;;;0.40;0.40;;;;;;;9.88;34.65;94368.66;4916739;29;20229;-85
2024/02/03 02:54:19;;;;;;;0.50;0.50;;;;;;;9.86;34.29;94365.50;4916595;29;20269;-84
2024/02/03 02:56:46;;;;;;;0.60;0.60;;;;;;;9.85;34.17;94351.06;4916984;29;20213;-84
2024/02/03 02:59:12;;;;;;;0.50;0.50;;;;;;;9.85;34.15;94345.91;4915602;29;20209;-85
2024/02/03 03:01:39;;;;;;;0.40;0.40;;;;;;;9.86;34.34;94352.63;4916392;29;20230;-84
2024/02/03 03:04:05;;;;;;;0.50;0.50;;;;;;;9.86;34.46;94347.50;4917173;29;20605;-85
2024/02/03 03:06:31;;;;;;;0.40;0.40;;;;;;;9.82;33.96;94329.13;4916677;29;20226;-84
2024/02/03 03:08:58;;;;;;;0.50;0.50;;;;;;;9.82;34.01;94329.13;4916806;29;20728;-83
2024/02/03 03:11:25;;;;;;;0.50;0.50;;;;;;;9.83;34.03;94319.63;4909979;29;20253;-85
2024/02/03 03:13:52;;;;;;;0.50;0.50;;;;;;;9.86;34.15;94332.06;4898169;29;20207;-84
2024/02/03 03:16:18;;;;;;;0.50;0.50;;;;;;;9.90;34.29;94341.75;4916502;29;20206;-84
2024/02/03 03:18:45;;;;;;;0.50;0.50;;;;;;;9.87;34.07;94336.22;4916394;29;20304;-84
2024/02/03 03:21:11;;;;;;;0.50;0.50;;;;;;;9.88;34.61;94359.16;4911729;29;20223;-85
2024/02/03 03:23:38;;;;;;;0.50;0.50;;;;;;;9.91;34.49;94375.97;4904688;29;20199;-84
2024/02/03 03:26:05;;;;;;;0.50;0.50;;;;;;;9.94;34.49;94367.84;4897879;29;20214;-85
2024/02/03 03:28:33;;;;;;;0.60;0.60;;;;;;;9.95;34.24;94351.44;4903647;29;20914;-84
2024/02/03 03:30:59;;;;;;;0.50;0.50;;;;;;;9.98;34.16;94363.91;4915440;29;20290;-84
2024/02/03 03:33:26;;;;;;;1.60;0.50;;;;;;;9.99;34.57;94378.34;4916478;29;20214;-84
2024/02/03 03:35:52;;;;;;;0.40;0.40;;;;;;;9.97;34.26;94370.03;4916712;29;20280;-84
2024/02/03 03:38:18;;;;;;;0.50;0.50;;;;;;;9.98;34.52;94374.19;4916399;29;20213;-83
2024/02/03 03:40:45;;;;;;;0.50;0.50;;;;;;;9.91;34.28;94366.47;4917834;29;20218;-83
2024/02/03 03:43:11;;;;;;;0.40;0.40;;;;;;;9.95;34.54;94385.66;4919767;29;20210;-84
2024/02/03 03:45:39;;;;;;;0.80;0.60;;;;;;;9.99;34.45;94394.53;4919694;29;20614;-84
2024/02/03 03:48:07;;;;;;;0.43;0.43;;;;;;;9.95;34.71;94408.00;4916895;29;20260;-84
2024/02/03 03:50:33;;;;;;;0.40;0.40;;;;;;;9.96;34.83;94437.88;4920205;29;20250;-85
2024/02/03 03:53:00;;;;;;;0.50;0.50;;;;;;;10.00;35.71;94462.97;4919187;29;20238;-84
2024/02/03 03:55:26;;;;;;;0.50;0.50;;;;;;;9.96;35.59;94464.38;4919220;29;20206;-84
2024/02/03 03:57:52;;;;;;;0.53;0.53;;;;;;;9.96;35.86;94482.38;4920179;29;20202;-84
2024/02/03 04:00:20;;;;;;;0.87;0.60;;;;;;;9.91;35.82;94489.88;4919471;29;20202;-85
2024/02/03 04:02:47;;;;;;;0.60;0.60;;;;;;;9.94;35.98;94515.19;4917984;29;20225;-85
2024/02/03 04:05:14;;;;;;;0.50;0.50;;;;;;;9.96;36.24;94538.13;4919229;29;20680;-84
2024/02/03 04:07:40;;;;;;;0.50;0.50;;;;;;;9.89;36.36;94532.97;4918941;29;20222;-84
2024/02/03 04:10:07;;;;;;;0.50;0.50;;;;;;;9.90;36.91;94549.19;4918038;29;20217;-84
2024/02/03 04:12:34;;;;;;;0.50;0.50;;;;;;;9.81;36.95;94570.97;4902595;29;20705;-84
2024/02/03 04:15:01;;;;;;;0.50;0.50;;;;;;;9.82;36.90;94586.16;4911104;29;20222;-83
2024/02/03 04:17:28;;;;;;;0.60;0.57;;;;;;;9.83;36.99;94605.75;4918435;29;20238;-85
2024/02/03 04:19:56;;;;;;;0.50;0.50;;;;;;;9.81;37.31;94614.66;4912097;29;20206;-84
2024/02/03 04:22:22;;;;;;;0.40;0.40;;;;;;;9.80;37.70;94616.44;4918015;29;20245;-85
2024/02/03 04:24:48;;;;;;;0.47;0.47;;;;;;;9.88;37.54;94636.81;4918800;29;20206;-85
2024/02/03 04:27:15;;;;;;;0.40;0.40;;;;;;;9.88;37.63;94636.00;4918929;29;20245;-84
2024/02/03 04:29:40;;;;;;;0.43;0.43;;;;;;;9.88;37.65;94634.22;4918400;29;20199;-87
2024/02/03 04:32:07;;;;;;;0.50;0.50;;;;;;;9.85;37.76;94636.41;4917679;29;20661;-84
2024/02/03 04:34:33;;;;;;;0.60;0.57;;;;;;;9.81;37.97;94643.72;4922840;29;20202;-85
2024/02/03 04:37:01;;;;;;;0.50;0.50;;;;;;;9.80;38.31;94649.84;4928309;29;20729;-84
2024/02/03 04:39:27;;;;;;;0.50;0.50;;;;;;;9.81;38.03;94656.59;4927408;29;20241;-84
2024/02/03 04:41:54;;;;;;;0.70;0.70;;;;;;;9.79;38.08;94673.97;4926657;29;20218;-86
2024/02/03 04:44:20;;;;;;;0.53;0.53;;;;;;;9.82;38.31;94681.28;4926946;29;20230;-85
2024/02/03 04:46:46;;;;;;;0.60;0.60;;;;;;;9.81;38.29;94692.56;4927341;29;20222;-84
2024/02/03 04:49:13;;;;;;;0.70;0.50;;;;;;;9.75;38.41;94695.13;4927048;29;20381;-82
2024/02/03 04:51:38;;;;;;;0.50;0.50;;;;;;;9.75;38.50;94702.81;4924610;29;20217;-84
2024/02/03 04:54:06;;;;;;;0.70;0.70;;;;;;;9.70;38.75;94717.03;4926828;29;20261;-84
2024/02/03 04:56:33;;;;;;;0.50;0.50;;;;;;;9.74;38.95;94729.50;4927218;29;20202;-84
2024/02/03 04:58:59;;;;;;;0.50;0.50;;;;;;;9.66;39.40;94754.38;4928023;29;20210;-83
2024/02/03 05:01:26;;;;;;;0.93;0.67;;;;;;;9.70;39.26;94755.59;4923495;29;20218;-85
2024/02/03 05:03:52;;;;;;;1.87;0.67;;;;;;;9.67;39.62;94765.44;4926562;29;20277;-84
2024/02/03 05:06:21;;;;;;;0.93;0.70;;;;;;;9.69;39.90;94782.28;4925846;29;20210;-85
2024/02/03 05:08:48;;;;;;;0.60;0.60;;;;;;;9.68;39.98;94797.88;4922983;29;20245;-85
2024/02/03 05:11:15;;;;;;;0.50;0.50;;;;;;;9.60;40.28;94814.28;4922845;29;20229;-85
2024/02/03 05:13:42;;;;;;;0.60;0.60;;;;;;;9.57;40.57;94827.50;4922831;29;20205;-83
2024/02/03 05:16:08;;;;;;;0.60;0.60;;;;;;;9.63;40.35;94841.34;4915105;29;20617;-85
2024/02/03 05:18:35;;;;;;;0.77;0.77;;;;;;;9.59;40.70;94853.00;4922658;29;20269;-84
2024/02/03 05:21:01;;;;;;;0.70;0.70;;;;;;;9.53;41.12;94871.72;4919832;29;20219;-84
2024/02/03 05:23:27;;;;;;;0.70;0.70;;;;;;;9.49;41.15;94866.16;4913479;29;20428;-83
2024/02/03 05:25:54;;;;;;;0.60;0.60;;;;;;;9.56;40.89;94871.38;4921951;29;20633;-85
2024/02/03 05:28:21;;;;;;;1.53;0.60;;;;;;;9.57;40.90;94871.19;4922585;29;20252;-85
2024/02/03 05:30:48;;;;;;;0.70;0.70;;;;;;;9.55;41.09;94865.44;4922238;29;20226;-84
2024/02/03 05:33:15;;;;;;;0.60;0.60;;;;;;;9.54;40.83;94866.41;4922345;29;20214;-86
2024/02/03 05:35:41;;;;;;;0.60;0.60;;;;;;;9.59;40.95;94884.63;4923135;29;20217;-85
2024/02/03 05:38:08;;;;;;;0.83;0.60;;;;;;;9.58;40.75;94884.81;4922490;29;20210;-84
2024/02/03 05:40:34;;;;;;;0.53;0.53;;;;;;;9.56;40.88;94895.28;4919923;29;20237;-84
2024/02/03 05:43:01;;;;;;;0.70;0.70;;;;;;;9.53;41.13;94890.50;4927294;29;20241;-85
2024/02/03 05:45:29;;;;;;;0.63;0.63;;;;;;;9.59;41.48;94922.38;4922086;29;20202;-86
2024/02/03 05:47:55;;;;;;;0.60;0.60;;;;;;;9.57;41.71;94938.00;4922408;29;20601;-84
2024/02/03 05:50:21;;;;;;;0.60;0.60;;;;;;;9.60;41.91;94952.25;4922364;29;20206;-85
2024/02/03 05:52:48;;;;;;;0.57;0.57;;;;;;;9.63;42.12;94972.41;4922699;29;20254;-85
2024/02/03 05:55:14;;;;;;;0.60;0.60;;;;;;;9.62;42.37;94976.00;4921799;29;20217;-84
2024/02/03 05:57:49;;;;;;;0.70;0.70;;;;;;;9.66;42.56;94995.19;4918205;29;20226;-85
2024/02/03 06:00:16;;;;;;;0.77;0.77;;;;;;;9.63;42.60;95019.47;4920201;29;20258;-83
2024/02/03 06:02:44;;;;;;;0.63;0.63;;;;;;;9.62;43.11;95048.72;4919933;29;20802;-85
2024/02/03 06:05:10;;;;;;;0.70;0.70;;;;;;;9.60;43.47;95068.69;4922083;29;20202;-84
2024/02/03 06:07:38;;;;;;;0.80;0.80;;;;;;;9.63;43.46;95083.72;4920748;29;20218;-84
2024/02/03 06:10:06;;;;;;;0.53;0.53;;;;;;;9.61;43.75;95101.13;4920942;29;20234;-83
2024/02/03 06:12:33;;;;;;;0.80;0.80;;;;;;;9.59;44.38;95122.84;4914497;29;20240;-85
2024/02/03 06:14:59;;;;;;;0.70;0.70;;;;;;;9.58;44.08;95131.53;4921383;29;20295;-84
2024/02/03 06:17:26;;;;;;;1.83;0.60;;;;;;;9.59;44.31;95141.63;4921035;29;20197;-84
2024/02/03 06:19:54;;;;;;;69.77;5.43;;;;;;;9.62;45.56;95208.06;4920397;29;20220;-85
2024/02/03 06:22:20;;;;;;;0.73;0.73;;;;;;;9.66;44.19;95168.19;4913308;29;20221;-84
2024/02/03 06:24:46;;;;;;;0.80;0.80;;;;;;;9.66;44.40;95147.63;4919889;29;20202;-84
2024/02/03 06:27:13;;;;;;;2.23;0.70;;;;;;;9.66;44.11;95137.34;4918809;29;20222;-87
2024/02/03 06:29:39;;;;;;;2.00;0.80;;;;;;;9.63;43.95;95137.69;4917241;29;20266;-84
2024/02/03 06:32:06;;;;;;;0.93;0.70;;;;;;;9.58;43.54;95108.41;4921197;29;20271;-84
2024/02/03 06:34:32;;;;;;;1.57;0.70;;;;;;;9.59;43.40;95095.38;4921187;29;20207;-85
2024/02/03 06:37:00;;;;;;;1.00;0.80;;;;;;;9.54;43.29;95069.41;4919724;29;20769;-84
2024/02/03 06:39:27;;;;;;;1.00;0.80;;;;;;;9.56;42.94;95062.31;4919957;29;20206;-84
2024/02/03 06:41:53;;;;;;;1.17;0.83;;;;;;;9.56;43.06;95054.63;4920337;29;20794;-85
2024/02/03 06:44:19;;;;;;;0.70;0.70;;;;;;;9.53;42.10;95000.22;4919020;29;20210;-85
2024/02/03 06:46:46;;;;;;;0.77;0.77;;;;;;;9.48;42.26;95002.53;4918907;29;20205;-87
2024/02/03 06:49:12;;;;;;;0.70;0.70;;;;;;;9.50;41.67;94980.03;4918191;29;20665;-87
2024/02/03 06:51:39;;;;;;;0.77;0.70;;;;;;;9.50;41.61;94957.69;4919054;29;20232;-87
2024/02/03 06:54:06;;;;;;;0.70;0.70;;;;;;;9.43;41.04;94923.44;4918310;29;20248;-87
2024/02/03 06:56:33;;;;;;;1.93;0.90;;;;;;;9.42;40.99;94929.56;4919970;29;20265;-86
2024/02/03 06:58:59;;;;;;;0.70;0.70;;;;;;;9.39;41.10;94922.22;4919300;29;20190;-83
2024/02/03 07:01:26;;;;;;;0.70;0.70;;;;;;;9.43;41.05;94931.13;4917655;29;20226;-82
2024/02/03 07:03:52;;;;;;;0.70;0.70;;;;;;;9.43;41.10;94931.13;4923184;29;20203;-84
2024/02/03 07:06:18;;;;;;;0.70;0.70;;;;;;;9.45;40.94;94926.59;4923168;29;20224;-84
2024/02/03 07:08:46;;;;;;;0.70;0.70;;;;;;;9.62;41.20;94951.06;4914066;29;20221;-84
2024/02/03 07:11:14;;;;;;;0.93;0.70;;;;;;;9.82;41.11;94953.78;4912445;29;20242;-84
2024/02/03 07:13:41;;;;;;;1.17;0.70;;;;;;;10.08;40.95;94957.50;4905116;29;20210;-86
2024/02/03 07:16:08;;;;;;;0.70;0.70;;;;;;;10.36;40.76;94953.97;4918365;29;20291;-87
2024/02/03 07:18:35;;;;;;;0.70;0.70;;;;;;;10.66;40.81;94953.69;4920362;29;20226;-86
2024/02/03 07:21:01;;;;;;;0.80;0.80;;;;;;;10.84;40.63;94950.59;4911851;29;20222;-85
2024/02/03 07:23:28;;;;;;;0.60;0.60;;;;;;;11.07;40.40;94944.13;4919346;29;20217;-86
2024/02/03 07:25:54;;;;;;;2.30;0.80;;;;;;;11.46;39.98;94934.84;4919587;29;20240;-86
2024/02/03 07:28:24;;;;;;;0.90;0.90;;;;;;;11.76;39.39;94912.06;4917849;29;20864;-86
2024/02/03 07:30:51;;;;;;;0.80;0.80;;;;;;;12.11;39.16;94894.56;4919001;29;20225;-83
2024/02/03 07:33:17;;;;;;;1.43;0.90;;;;;;;12.41;38.73;94881.94;4918361;29;20599;-87
2024/02/03 07:35:43;;;;;;;0.77;0.77;;;;;;;12.76;38.59;94867.66;4916273;29;20210;-86
2024/02/03 07:38:10;;;;;;;0.83;0.80;;;;;;;13.08;38.01;94859.94;4919130;29;20198;-87
2024/02/03 07:40:36;;;;;;;0.83;0.83;;;;;;;13.31;37.72;94826.56;4918806;29;20233;-86
2024/02/03 07:43:03;;;;;;;0.80;0.80;;;;;;;13.55;37.25;94806.88;4919276;29;20575;-85
2024/02/03 07:45:31;;;;;;;0.93;0.93;;;;;;;13.71;37.10;94787.41;4917640;29;20210;-85
2024/02/03 07:47:57;;;;;;;0.97;0.70;;;;;;;13.84;37.17;94771.75;4919353;29;20232;-85
2024/02/03 07:50:26;;;;;;;1.00;0.83;;;;;;;14.06;36.79;94775.44;4920018;29;20206;-84
2024/02/03 07:52:52;;;;;;;2.00;0.80;;;;;;;14.13;36.69;94757.25;4919421;29;20210;-84
2024/02/03 07:55:21;;;;;;;0.77;0.77;;;;;;;14.28;36.69;94757.66;4919750;29;20218;-84
2024/02/03 07:57:48;;;;;;;0.93;0.83;;;;;;;14.36;36.31;94735.84;4923897;29;20258;-85
2024/02/03 08:00:14;;;;;;;1.00;0.90;;;;;;;14.39;35.89;94710.31;4919541;29;20269;-84
2024/02/03 08:02:44;;;;;;;3.35;0.90;;;;;;;14.55;36.13;94729.63;4917026;29;20206;-84
2024/02/03 08:05:14;;;;;;;0.80;0.80;;;;;;;14.64;36.25;94707.56;4918746;29;20210;-85
2024/02/03 08:07:42;;;;;;;2.17;0.90;;;;;;;14.62;35.30;94651.81;4919158;29;20222;-83
2024/02/03 08:10:09;;;;;;;0.82;0.73;;;;;;;14.64;35.58;94667.91;4918810;29;20301;-83
2024/02/03 08:12:34;;;;;;;26.45;3.85;;;;;;;14.77;36.57;94776.56;4918946;29;20584;-84
2024/02/03 08:15:01;;;;;;;1.23;0.98;;;;;;;14.71;35.04;94635.72;4922382;29;20206;-82
2024/02/03 08:17:27;;;;;;;1.10;1.00;;;;;;;14.71;34.75;94606.41;4921340;29;20215;-82
2024/02/03 08:19:55;;;;;;;0.95;0.80;;;;;;;14.73;34.63;94594.81;4923328;29;20676;-84
2024/02/03 08:22:21;;;;;;;1.85;1.48;;;;;;;14.81;33.81;94541.88;4923558;29;20748;-81
2024/02/03 08:24:48;;;;;;;0.80;0.80;;;;;;;14.96;34.09;94541.38;4922998;29;20206;-83
2024/02/03 08:27:14;;;;;;;1.20;0.90;;;;;;;15.12;33.34;94519.94;4920027;29;20225;-84
2024/02/03 08:29:40;;;;;;;0.80;0.80;;;;;;;15.33;33.02;94493.34;4921017;29;20224;-83
2024/02/03 08:32:07;;;;;;;3.08;1.02;;;;;;;15.47;32.80;94476.47;4915123;29;20282;-84
2024/02/03 08:34:34;;;;;;;1.20;1.00;;;;;;;15.66;32.50;94463.31;4918297;29;20202;-83
2024/02/03 08:37:01;;;;;;;2.88;0.80;;;;;;;15.75;32.25;94443.75;4920278;29;20770;-83
2024/02/03 08:39:28;;;;;;;2.42;0.93;;;;;;;15.87;31.88;94415.91;4919950;29;20210;-83
2024/02/03 08:41:54;;;;;;;0.82;0.80;;;;;;;15.97;31.18;94376.34;4919438;29;20218;-83
2024/02/03 08:44:20;;;;;;;1.05;0.85;;;;;;;16.18;31.48;94385.94;4919195;29;20214;-84
2024/02/03 08:46:47;;;;;;;1.15;1.05;;;;;;;16.17;31.17;94361.00;4920090;29;20221;-84
2024/02/03 08:49:13;;;;;;;1.33;0.90;;;;;;;16.11;30.16;94291.88;4916883;29;20230;-84
2024/02/03 08:51:40;;;;;;;0.88;0.88;;;;;;;16.09;30.63;94310.28;4916388;29;20266;-82
2024/02/03 08:54:08;;;;;;;2.95;0.90;;;;;;;15.99;30.44;94296.38;4918754;29;20203;-86
2024/02/03 08:56:34;;;;;;;2.03;1.00;;;;;;;15.82;30.62;94302.41;4918093;29;20210;-84
2024/02/03 08:59:00;;;;;;;1.73;0.98;;;;;;;15.65;31.27;94343.19;4918034;29;20201;-84
2024/02/03 09:01:27;;;;;;;2.58;0.90;;;;;;;15.87;31.76;94389.94;4909458;29;20748;-85
2024/02/03 09:03:53;;;;;;;0.95;0.88;;;;;;;15.96;31.78;94391.13;4918086;29;20207;-80
2024/02/03 09:06:20;;;;;;;1.85;0.93;;;;;;;16.13;35.30;94706.09;4913432;29;20206;-80
2024/02/03 09:08:47;;;;;;;1.95;1.10;;;;;;;16.29;36.28;94704.53;4914870;29;20237;-80
2024/02/03 09:11:14;;;;;;;6.82;0.90;;;;;;;16.44;34.07;94626.06;4909827;29;20254;-81
2024/02/03 09:13:41;;;;;;;1.15;0.80;;;;;;;16.54;33.48;94579.47;4897619;29;20207;-84
2024/02/03 09:16:07;;;;;;;1.20;0.80;;;;;;;16.55;32.95;94531.63;4909064;29;20210;-83
2024/02/03 09:18:34;;;;;;;0.70;0.70;;;;;;;16.44;33.06;94535.13;4916570;29;20222;-84
2024/02/03 09:21:00;;;;;;;1.25;0.80;;;;;;;16.50;33.17;94552.38;4916665;29;20231;-84
2024/02/03 09:23:27;;;;;;;0.80;0.80;;;;;;;16.39;33.21;94551.44;4917758;29;20206;-83
2024/02/03 09:25:54;;;;;;;0.70;0.70;;;;;;;16.44;33.63;94576.69;4918848;29;20209;-84
2024/02/03 09:28:22;;;;;;;0.60;0.60;;;;;;;16.23;34.01;94604.16;4918690;29;20297;-83
2024/02/03 09:30:49;;;;;;;1.30;0.77;;;;;;;16.41;34.44;94640.31;4919109;29;20226;-84
2024/02/03 09:33:15;;;;;;;1.98;1.33;;;;;;;16.41;34.82;94666.28;4919453;29;20209;-85
2024/02/03 09:35:41;;;;;;;1.20;0.90;;;;;;;16.53;34.55;94664.44;4920656;29;20721;-84
2024/02/03 09:38:08;;;;;;;1.35;0.95;;;;;;;16.68;34.83;94686.50;4916978;29;20211;-84
2024/02/03 09:40:34;;;;;;;0.63;0.63;;;;;;;16.67;34.44;94672.72;4917751;29;20289;-85
2024/02/03 09:43:01;;;;;;;0.70;0.70;;;;;;;16.69;34.94;94701.09;4917627;29;20266;-85
2024/02/03 09:45:30;;;;;;;2.33;1.00;;;;;;;16.73;35.55;94741.97;4917976;29;20206;-84
2024/02/03 09:47:57;;;;;;;1.67;1.08;;;;;;;16.79;35.73;94753.22;4917188;29;20238;-85
2024/02/03 09:50:24;;;;;;;1.02;0.90;;;;;;;16.76;35.54;94743.28;4917748;29;20207;-84
2024/02/03 09:52:50;;;;;;;3.47;1.15;;;;;;;16.67;36.13;94784.50;4916862;29;20206;-84
2024/02/03 09:55:18;;;;;;;1.10;1.00;;;;;;;16.79;36.13;94793.00;4913806;29;20203;-85
2024/02/03 09:57:46;;;;;;;1.55;1.15;;;;;;;16.90;36.70;94836.38;4917462;29;20209;-84
2024/02/03 10:00:14;;;;;;;0.77;0.77;;;;;;;17.00;36.22;94812.34;4917169;29;20840;-85
2024/02/03 10:02:42;;;;;;;4.30;3.58;;;;;;;17.03;36.08;94808.50;4916674;29;20209;-84
2024/02/03 10:05:08;;;;;;;2.65;2.00;;;;;;;16.84;36.59;94828.72;4912243;29;20202;-84
2024/02/03 10:07:35;;;;;;;2.97;1.20;;;;;;;16.69;37.06;94863.03;4917400;29;20216;-85
2024/02/03 10:10:05;;;;;;;0.80;0.80;;;;;;;16.60;37.28;94879.97;4916009;29;20241;-87
2024/02/03 10:12:32;;;;;;;3.15;1.23;;;;;;;16.62;37.26;94892.75;4914581;29;20226;-85
2024/02/03 10:15:00;;;;;;;1.27;1.17;;;;;;;16.55;37.63;94913.66;4915924;29;20554;-85
2024/02/03 10:17:27;;;;;;;1.30;1.02;;;;;;;16.20;38.51;94929.28;4916638;29;20244;-84
2024/02/03 10:19:55;;;;;;;1.67;0.90;;;;;;;16.20;38.39;94952.66;4923413;29;20194;-85
2024/02/03 10:22:21;;;;;;;1.85;1.10;;;;;;;16.29;38.63;94977.31;4920720;29;20218;-87
2024/02/03 10:24:48;;;;;;;1.40;1.30;;;;;;;16.34;38.49;94969.63;4916261;29;20209;-86
2024/02/03 10:27:14;;;;;;;1.10;1.05;;;;;;;16.36;38.70;94972.75;4916082;29;20213;-84
2024/02/03 10:29:41;;;;;;;1.40;1.30;;;;;;;16.14;39.37;95008.94;4928201;29;20221;-85
2024/02/03 10:32:07;;;;;;;2.03;1.08;;;;;;;16.23;38.96;94994.56;4935902;29;20225;-85
2024/02/03 10:34:35;;;;;;;1.50;1.25;;;;;;;16.09;39.39;95028.78;4935988;29;20206;-84
2024/02/03 10:37:03;;;;;;;1.23;1.13;;;;;;;16.27;39.37;95038.28;4917722;29;20194;-85
2024/02/03 10:39:29;;;;;;;1.75;1.30;;;;;;;16.21;39.25;95016.59;4916159;29;20217;-85
2024/02/03 10:41:58;;;;;;;1.20;1.17;;;;;;;16.22;39.76;95047.53;4915549;29;20774;-83
2024/02/03 10:44:25;;;;;;;3.05;1.40;;;;;;;16.16;39.79;95045.84;4917429;29;20207;-85
2024/02/03 10:46:53;;;;;;;2.10;1.20;;;;;;;16.17;39.73;95044.03;4917992;29;20219;-85
2024/02/03 10:49:31;;;;;;;1.75;1.30;;;;;;;16.23;39.66;95020.56;4918222;29;20248;-84
2024/02/03 10:51:59;;;;;;;1.30;1.13;;;;;;;16.06;39.87;95043.00;4917522;29;20237;-85
2024/02/03 10:54:29;;;;;;;1.17;1.10;;;;;;;16.12;39.70;95023.94;4916257;29;20221;-82
2024/02/03 10:56:59;;;;;;;1.10;1.00;;;;;;;16.15;39.71;95014.91;4921403;29;20499;-85
2024/02/03 10:59:25;;;;;;;1.30;1.20;;;;;;;16.08;40.02;95028.00;4919763;29;20202;-83
2024/02/03 11:01:52;;;;;;;2.25;1.20;;;;;;;16.11;39.90;95035.34;4920523;29;20263;-83
2024/02/03 11:04:18;;;;;;;1.67;1.20;;;;;;;16.02;39.55;94997.72;4921082;29;20217;-83
2024/02/03 11:06:47;;;;;;;1.65;1.00;;;;;;;15.95;39.82;94997.06;4920647;29;20722;-84
2024/02/03 11:09:15;;;;;;;1.25;1.10;;;;;;;15.92;39.61;94994.09;4921145;29;20309;-83
2024/02/03 11:11:45;;;;;;;1.55;1.00;;;;;;;16.01;39.88;95005.72;4910928;29;20334;-84
2024/02/03 11:14:13;;;;;;;1.00;1.00;;;;;;;16.13;39.45;94989.16;4907966;29;20203;-84
2024/02/03 11:16:39;;;;;;;1.15;1.00;;;;;;;16.10;40.24;95019.97;4921021;29;20238;-84
2024/02/03 11:19:08;;;;;;;1.00;1.00;;;;;;;16.19;40.13;95008.22;4920820;29;20751;-84
2024/02/03 11:21:41;;;;;;;1.27;1.10;;;;;;;16.20;39.92;95002.81;4913096;29;20239;-84
2024/02/03 11:24:08;;;;;;;1.20;1.00;;;;;;;16.23;40.24;95017.16;4902197;29;20755;-84
2024/02/03 11:26:35;;;;;;;0.90;0.90;;;;;;;16.26;39.80;94998.53;4900911;29;20683;-82
2024/02/03 11:29:03;;;;;;;1.77;1.15;;;;;;;16.16;40.20;95004.28;4910600;29;20209;-83
2024/02/03 11:31:30;;;;;;;1.45;1.15;;;;;;;16.02;40.12;94999.53;4916442;29;20257;-80
2024/02/03 11:33:57;;;;;;;1.10;1.00;;;;;;;16.13;40.35;94991.75;4918548;29;20305;-80
2024/02/03 11:36:24;;;;;;;1.80;1.20;;;;;;;16.19;40.42;95013.44;4918659;29;20241;-80